createdAt,value
2019-04-27T00:01:34.302Z,69.03
2019-04-27T00:04:23.560Z,69.28
2019-04-27T00:06:55.331Z,68.78
2019-04-27T00:09:27.794Z,68.49
2019-04-27T00:11:59.063Z,68.40
2019-04-27T00:14:28.712Z,68.56
2019-04-27T00:16:58.244Z,68.92
2019-04-27T00:19:31.690Z,68.26
2019-04-27T00:22:03.136Z,67.89
2019-04-27T00:24:33.545Z,68.34
2019-04-27T00:27:04.523Z,68.35
2019-04-27T00:29:34.170Z,68.50
2019-04-27T00:32:04.363Z,68.54
2019-04-27T00:34:34.536Z,67.99
2019-04-27T00:37:23.666Z,68.58
2019-04-27T00:39:59.282Z,69.25
2019-04-27T00:42:28.974Z,68.77
2019-04-27T00:44:58.641Z,69.19
2019-04-27T00:47:28.250Z,69.48
2019-04-27T00:49:57.903Z,70.51
2019-04-27T00:52:27.597Z,70.05
2019-04-27T00:54:57.247Z,69.81
2019-04-27T00:57:30.951Z,70.09
2019-04-27T01:00:09.695Z,70.32
2019-04-27T01:02:43.636Z,69.61
2019-04-27T01:05:15.076Z,70.56
2019-04-27T01:07:44.699Z,70.07
2019-04-27T01:10:14.484Z,70.33
2019-04-27T01:12:44.104Z,70.25
2019-04-27T01:15:13.925Z,69.86
2019-04-27T01:17:43.673Z,70.82
2019-04-27T01:20:13.660Z,70.75
2019-04-27T01:22:43.282Z,69.84
2019-04-27T01:25:13.909Z,69.74
2019-04-27T01:28:01.295Z,69.27
2019-04-27T01:30:35.129Z,68.82
2019-04-27T01:33:04.837Z,69.07
2019-04-27T01:35:34.535Z,69.92
2019-04-27T01:38:04.216Z,69.92
2019-04-27T01:40:33.928Z,68.46
2019-04-27T01:43:03.619Z,69.71
2019-04-27T01:45:33.330Z,68.82
2019-04-27T01:48:02.949Z,68.15
2019-04-27T01:50:32.593Z,68.51
2019-04-27T01:53:02.293Z,68.00
2019-04-27T01:55:32.100Z,69.74
2019-04-27T01:58:01.779Z,69.00
2019-04-27T02:00:56.850Z,68.91
2019-04-27T02:03:43.957Z,69.42
2019-04-27T02:06:13.941Z,69.34
2019-04-27T02:08:43.695Z,69.42
2019-04-27T02:11:13.332Z,69.36
2019-04-27T02:13:42.946Z,68.54
2019-04-27T02:16:12.595Z,68.31
2019-04-27T02:18:42.289Z,67.30
2019-04-27T02:21:11.998Z,67.23
2019-04-27T02:23:41.615Z,67.65
2019-04-27T02:26:11.259Z,67.35
2019-04-27T02:28:46.469Z,67.25
2019-04-27T02:31:23.241Z,68.11
2019-04-27T02:34:03.359Z,67.08
2019-04-27T02:36:32.998Z,67.23
2019-04-27T02:39:02.682Z,67.57
2019-04-27T02:41:32.325Z,67.79
2019-04-27T02:44:03.727Z,68.11
2019-04-27T02:46:33.432Z,67.67
2019-04-27T02:49:06.364Z,67.01
2019-04-27T02:51:52.159Z,67.19
2019-04-27T02:54:21.772Z,67.05
2019-04-27T02:56:52.836Z,67.07
2019-04-27T02:59:22.713Z,67.05
2019-04-27T03:01:57.166Z,67.07
2019-04-27T03:04:26.778Z,67.23
2019-04-27T03:06:56.424Z,67.42
2019-04-27T03:09:26.035Z,67.22
2019-04-27T03:11:56.089Z,66.98
2019-04-27T03:14:43.805Z,67.24
2019-04-27T03:17:22.211Z,67.21
2019-04-27T03:20:07.174Z,67.12
2019-04-27T03:22:42.229Z,66.90
2019-04-27T03:25:15.303Z,66.46
2019-04-27T03:27:46.299Z,66.78
2019-04-27T03:30:16.700Z,66.49
2019-04-27T03:32:46.444Z,66.87
2019-04-27T03:35:16.155Z,66.83
2019-04-27T03:37:46.218Z,66.09
2019-04-27T03:40:16.061Z,66.57
2019-04-27T03:42:49.853Z,66.55
2019-04-27T03:45:20.051Z,66.56
2019-04-27T03:47:50.661Z,67.00
2019-04-27T03:50:22.020Z,65.42
2019-04-27T03:52:53.283Z,66.38
2019-04-27T03:55:24.632Z,68.38
2019-04-27T03:57:54.254Z,66.05
2019-04-27T04:00:25.673Z,66.85
2019-04-27T04:02:55.423Z,67.84
2019-04-27T04:05:25.137Z,66.43
2019-04-27T04:07:54.891Z,68.02
2019-04-27T04:10:29.217Z,65.70
2019-04-27T04:13:02.905Z,67.21
2019-04-27T04:15:34.181Z,66.47
2019-04-27T04:18:03.802Z,66.58
2019-04-27T04:20:33.435Z,68.46
2019-04-27T04:23:03.545Z,68.52
2019-04-27T04:25:33.441Z,66.80
2019-04-27T04:28:03.058Z,67.56
2019-04-27T04:30:32.696Z,68.20
2019-04-27T04:33:02.326Z,67.71
2019-04-27T04:35:33.328Z,67.95
2019-04-27T04:38:03.406Z,64.89
2019-04-27T04:40:35.032Z,65.54
2019-04-27T04:43:12.069Z,66.89
2019-04-27T04:45:46.007Z,67.97
2019-04-27T04:48:20.175Z,68.00
2019-04-27T04:50:50.097Z,67.08
2019-04-27T04:53:20.714Z,67.34
2019-04-27T04:55:50.671Z,67.73
2019-04-27T04:58:21.178Z,68.36
2019-04-27T05:00:50.877Z,68.71
2019-04-27T05:03:21.827Z,68.65
2019-04-27T05:05:52.004Z,68.02
2019-04-27T05:08:21.612Z,69.07
2019-04-27T05:10:51.253Z,69.02
2019-04-27T05:13:20.876Z,68.89
2019-04-27T05:15:50.519Z,69.82
2019-04-27T05:18:20.136Z,69.23
2019-04-27T05:20:51.488Z,69.20
2019-04-27T05:23:21.108Z,69.27
2019-04-27T05:25:50.748Z,70.01
2019-04-27T05:28:20.388Z,69.68
2019-04-27T05:30:50.045Z,70.48
2019-04-27T05:33:19.664Z,69.58
2019-04-27T05:35:49.421Z,70.27
2019-04-27T05:38:19.522Z,70.50
2019-04-27T05:40:49.954Z,69.85
2019-04-27T05:43:21.488Z,70.45
2019-04-27T05:46:41.795Z,69.84
2019-04-27T05:49:20.626Z,69.77
2019-04-27T05:51:50.434Z,69.87
2019-04-27T05:54:20.691Z,70.00
2019-04-27T05:56:50.347Z,69.72
2019-04-27T05:59:20.076Z,69.73
2019-04-27T06:01:49.746Z,69.85
2019-04-27T06:04:19.510Z,70.33
2019-04-27T06:06:49.930Z,70.66
2019-04-27T06:09:19.777Z,69.17
2019-04-27T06:11:50.650Z,69.30
2019-04-27T06:14:20.515Z,69.56
2019-04-27T06:16:51.390Z,69.71
2019-04-27T06:19:21.142Z,70.25
2019-04-27T06:21:50.759Z,70.00
2019-04-27T06:24:20.397Z,69.42
2019-04-27T06:26:50.023Z,69.17
2019-04-27T06:29:19.793Z,69.57
2019-04-27T06:31:49.763Z,69.85
2019-04-27T06:34:19.570Z,68.86
2019-04-27T06:36:49.193Z,68.81
2019-04-27T06:39:20.548Z,68.80
2019-04-27T06:41:50.575Z,68.39
2019-04-27T06:44:20.460Z,68.14
2019-04-27T06:46:50.150Z,68.32
2019-04-27T06:49:19.798Z,67.70
2019-04-27T06:51:49.898Z,67.22
2019-04-27T06:54:21.395Z,67.49
2019-04-27T06:56:51.302Z,67.29
2019-04-27T06:59:20.945Z,67.12
2019-04-27T07:01:50.570Z,66.64
2019-04-27T07:04:20.290Z,67.21
2019-04-27T07:06:54.051Z,67.04
2019-04-27T07:09:21.290Z,66.00
2019-04-27T07:11:50.914Z,66.44
2019-04-27T07:14:20.643Z,65.14
2019-04-27T07:16:50.821Z,65.29
2019-04-27T07:19:20.587Z,65.45
2019-04-27T07:21:50.211Z,64.21
2019-04-27T07:24:19.862Z,64.59
2019-04-27T07:26:49.489Z,62.90
2019-04-27T07:29:19.647Z,63.56
2019-04-27T07:31:49.870Z,63.12
2019-04-27T07:34:19.584Z,62.60
2019-04-27T07:36:49.319Z,62.52
2019-04-27T07:39:19.375Z,63.13
2019-04-27T07:41:49.287Z,61.44
2019-04-27T07:44:23.322Z,61.81
2019-04-27T07:47:10.674Z,61.80
2019-04-27T07:49:40.315Z,61.16
2019-04-27T07:52:09.946Z,61.20
2019-04-27T07:54:41.020Z,60.86
2019-04-27T07:57:10.800Z,60.40
2019-04-27T07:59:42.108Z,60.95
2019-04-27T08:02:11.962Z,60.48
2019-04-27T08:04:41.605Z,60.44
2019-04-27T08:07:11.263Z,61.02
2019-04-27T08:09:40.881Z,61.10
2019-04-27T08:12:11.000Z,60.54
2019-04-27T08:14:40.897Z,60.30
2019-04-27T08:17:10.546Z,60.02
2019-04-27T08:19:40.338Z,59.15
2019-04-27T08:22:10.156Z,59.64
2019-04-27T08:24:39.844Z,58.55
2019-04-27T08:27:14.230Z,58.58
2019-04-27T08:29:44.757Z,57.88
2019-04-27T08:32:19.556Z,57.76
2019-04-27T08:34:49.699Z,56.95
2019-04-27T08:37:19.397Z,55.40
2019-04-27T08:39:49.409Z,55.43
2019-04-27T08:42:20.396Z,53.13
2019-04-27T08:44:50.015Z,53.75
2019-04-27T08:47:19.695Z,53.88
2019-04-27T08:49:49.392Z,54.51
2019-04-27T08:52:19.481Z,54.83
2019-04-27T08:54:51.087Z,54.51
2019-04-27T08:57:20.653Z,55.13
2019-04-27T08:59:51.093Z,54.72
2019-04-27T09:02:20.898Z,54.87
2019-04-27T09:04:50.518Z,56.10
2019-04-27T09:07:32.142Z,56.13
2019-04-27T09:10:06.356Z,56.98
2019-04-27T09:12:55.694Z,57.97
2019-04-27T09:15:29.221Z,59.16
2019-04-27T09:17:59.906Z,60.69
2019-04-27T09:20:40.015Z,60.93
2019-04-27T09:23:09.987Z,61.10
2019-04-27T09:25:39.783Z,61.46
2019-04-27T09:28:09.464Z,60.81
2019-04-27T09:30:39.469Z,60.24
2019-04-27T09:33:09.286Z,59.89
2019-04-27T09:35:38.891Z,59.08
2019-04-27T09:38:08.605Z,58.48
2019-04-27T09:40:38.226Z,56.81
2019-04-27T09:43:07.958Z,56.49
2019-04-27T09:45:37.577Z,56.33
2019-04-27T09:48:07.439Z,55.70
2019-04-27T09:50:37.068Z,55.38
2019-04-27T09:53:06.791Z,54.82
2019-04-27T09:55:36.963Z,54.64
2019-04-27T09:58:06.645Z,54.43
2019-04-27T10:00:36.907Z,54.65
2019-04-27T10:03:06.805Z,54.60
2019-04-27T10:05:36.795Z,55.44
2019-04-27T10:08:06.756Z,55.31
2019-04-27T10:10:37.140Z,55.58
2019-04-27T10:13:07.223Z,54.85
2019-04-27T10:15:36.989Z,54.11
2019-04-27T10:18:06.762Z,53.69
2019-04-27T10:20:40.635Z,54.27
2019-04-27T10:23:07.762Z,54.44
2019-04-27T10:25:37.898Z,54.88
2019-04-27T10:28:07.639Z,54.41
2019-04-27T10:30:37.284Z,53.64
2019-04-27T10:33:08.138Z,53.33
2019-04-27T10:35:38.529Z,53.03
2019-04-27T10:38:08.154Z,53.31
2019-04-27T10:40:37.809Z,53.39
2019-04-27T10:43:07.511Z,53.26
2019-04-27T10:45:37.859Z,53.55
2019-04-27T10:48:07.813Z,53.61
2019-04-27T10:50:37.460Z,54.03
2019-04-27T10:53:07.187Z,53.85
2019-04-27T10:55:36.875Z,53.68
2019-04-27T10:58:06.670Z,53.99
2019-04-27T11:00:54.398Z,54.17
2019-04-27T11:03:41.762Z,53.85
2019-04-27T11:06:20.348Z,53.87
2019-04-27T11:08:50.050Z,53.91
2019-04-27T11:11:19.718Z,53.67
2019-04-27T11:13:49.409Z,53.89
2019-04-27T11:16:19.134Z,54.07
2019-04-27T11:18:48.836Z,54.45
2019-04-27T11:21:18.551Z,54.30
2019-04-27T11:23:48.246Z,54.45
2019-04-27T11:26:17.985Z,53.66
2019-04-27T11:28:47.615Z,53.41
2019-04-27T11:31:17.354Z,53.18
2019-04-27T11:33:47.034Z,53.10
2019-04-27T11:36:19.117Z,53.19
2019-04-27T11:38:50.538Z,52.73
2019-04-27T11:41:20.159Z,52.88
2019-04-27T11:43:49.952Z,52.68
2019-04-27T11:46:19.577Z,52.56
2019-04-27T11:48:49.295Z,52.35
2019-04-27T11:51:18.914Z,52.93
2019-04-27T11:53:48.566Z,54.21
2019-04-27T11:56:18.335Z,53.49
2019-04-27T11:58:48.842Z,53.20
2019-04-27T12:01:18.654Z,52.90
2019-04-27T12:03:48.375Z,51.48
2019-04-27T12:06:18.005Z,51.67
2019-04-27T12:08:47.714Z,51.99
2019-04-27T12:11:17.348Z,51.64
2019-04-27T12:13:47.384Z,51.10
2019-04-27T12:16:17.608Z,51.78
2019-04-27T12:18:49.130Z,52.91
2019-04-27T12:21:18.822Z,52.89
2019-04-27T12:23:48.453Z,53.35
2019-04-27T12:26:31.901Z,53.64
2019-04-27T12:29:03.465Z,53.25
2019-04-27T12:31:35.865Z,53.13
2019-04-27T12:34:06.174Z,53.86
2019-04-27T12:36:35.979Z,53.79
2019-04-27T12:39:12.212Z,53.71
2019-04-27T12:41:41.998Z,53.33
2019-04-27T12:44:11.796Z,52.72
2019-04-27T12:46:41.661Z,53.29
2019-04-27T12:49:11.626Z,53.09
2019-04-27T12:51:41.315Z,53.30
2019-04-27T12:54:12.607Z,53.03
2019-04-27T12:56:46.614Z,53.11
2019-04-27T12:59:17.974Z,53.03
2019-04-27T13:01:47.669Z,52.01
2019-04-27T13:04:17.323Z,50.80
2019-04-27T13:06:47.114Z,50.01
2019-04-27T13:09:17.345Z,49.31
2019-04-27T13:11:47.110Z,49.36
2019-04-27T13:14:16.730Z,49.76
2019-04-27T13:16:47.557Z,50.18
2019-04-27T13:19:18.025Z,50.05
2019-04-27T13:21:47.679Z,50.44
2019-04-27T13:24:17.377Z,50.64
2019-04-27T13:26:47.026Z,50.77
2019-04-27T13:29:16.798Z,51.06
2019-04-27T13:31:46.407Z,50.87
2019-04-27T13:34:16.034Z,51.48
2019-04-27T13:36:45.831Z,51.28
2019-04-27T13:39:15.900Z,51.62
2019-04-27T13:41:46.282Z,50.82
2019-04-27T13:44:16.204Z,51.04
2019-04-27T13:47:03.679Z,50.77
2019-04-27T13:49:36.352Z,50.53
2019-04-27T13:52:07.778Z,50.50
2019-04-27T13:54:37.423Z,50.10
2019-04-27T13:57:07.651Z,49.63
2019-04-27T13:59:37.420Z,49.89
2019-04-27T14:02:07.649Z,50.07
2019-04-27T14:04:37.297Z,50.01
2019-04-27T14:07:08.946Z,50.43
2019-04-27T14:09:39.267Z,49.67
2019-04-27T14:12:21.231Z,49.73
2019-04-27T14:14:51.426Z,50.18
2019-04-27T14:17:21.146Z,50.19
2019-04-27T14:19:50.770Z,49.85
2019-04-27T14:22:20.390Z,49.70
2019-04-27T14:24:50.109Z,49.18
2019-04-27T14:27:21.606Z,48.34
2019-04-27T14:29:51.253Z,47.85
2019-04-27T14:32:20.893Z,47.60
2019-04-27T14:34:50.525Z,46.86
2019-04-27T14:37:20.172Z,47.82
2019-04-27T14:39:49.817Z,48.17
2019-04-27T14:42:19.538Z,47.88
2019-04-27T14:44:49.383Z,48.43
2019-04-27T14:47:19.115Z,48.91
2019-04-27T14:49:49.213Z,49.36
2019-04-27T14:52:19.008Z,49.49
2019-04-27T14:54:50.822Z,50.07
2019-04-27T14:57:22.804Z,56.73
2019-04-27T14:59:52.472Z,61.89
2019-04-27T15:02:22.087Z,65.15
2019-04-27T15:04:51.737Z,67.97
2019-04-27T15:07:21.433Z,67.51
2019-04-27T15:09:54.447Z,68.20
2019-04-27T15:12:24.526Z,68.87
2019-04-27T15:14:57.287Z,69.06
2019-04-27T15:17:26.728Z,70.70
2019-04-27T15:19:58.182Z,69.54
2019-04-27T15:22:30.030Z,70.38
2019-04-27T15:25:11.811Z,70.59
2019-04-27T15:27:37.365Z,70.42
2019-04-27T15:30:11.145Z,70.36
2019-04-27T15:32:51.311Z,70.73
2019-04-27T15:35:28.507Z,71.67
2019-04-27T15:38:04.944Z,71.62
2019-04-27T15:40:44.010Z,71.12
2019-04-27T15:43:15.820Z,70.98
2019-04-27T15:45:45.512Z,71.23
2019-04-27T15:48:15.292Z,70.78
2019-04-27T15:50:44.913Z,71.01
2019-04-27T15:53:14.563Z,70.39
2019-04-27T15:55:44.259Z,69.86
2019-04-27T15:58:13.972Z,70.07
2019-04-27T16:00:43.735Z,70.07
2019-04-27T16:03:13.541Z,70.87
2019-04-27T16:05:43.232Z,70.17
2019-04-27T16:08:15.667Z,70.57
2019-04-27T16:10:44.456Z,71.30
2019-04-27T16:13:15.282Z,70.69
2019-04-27T16:15:50.156Z,71.39
2019-04-27T16:18:16.520Z,71.10
2019-04-27T16:20:46.243Z,70.33
2019-04-27T16:23:18.048Z,67.86
2019-04-27T16:25:50.701Z,63.57
2019-04-27T16:28:18.727Z,64.79
2019-04-27T16:30:50.649Z,64.15
2019-04-27T16:33:23.360Z,63.62
2019-04-27T16:35:53.009Z,62.24
2019-04-27T16:38:26.688Z,62.90
2019-04-27T16:40:59.654Z,61.76
2019-04-27T16:43:30.021Z,61.61
2019-04-27T16:46:04.287Z,62.65
2019-04-27T16:48:34.848Z,61.04
2019-04-27T16:51:01.358Z,63.43
2019-04-27T16:53:39.538Z,64.24
2019-04-27T16:56:15.103Z,64.34
2019-04-27T16:58:40.147Z,64.68
2019-04-27T17:01:13.335Z,64.49
2019-04-27T17:03:43.047Z,65.79
2019-04-27T17:06:12.679Z,64.73
2019-04-27T17:08:42.325Z,66.27
2019-04-27T17:11:13.830Z,67.35
2019-04-27T17:13:49.477Z,67.47
2019-04-27T17:16:18.945Z,66.52
2019-04-27T17:19:04.951Z,66.82
2019-04-27T17:21:33.447Z,65.56
2019-04-27T17:24:03.192Z,67.89
2019-04-27T17:26:35.568Z,67.05
2019-04-27T17:29:16.502Z,67.37
2019-04-27T17:31:46.023Z,66.64
2019-04-27T17:34:18.989Z,66.95
2019-04-27T17:36:48.469Z,66.95
2019-04-27T17:39:19.262Z,65.80
2019-04-27T17:41:52.864Z,67.58
2019-04-27T17:44:23.093Z,67.63
2019-04-27T17:46:53.040Z,66.32
2019-04-27T17:49:22.733Z,67.45
2019-04-27T17:51:52.532Z,66.78
2019-04-27T17:54:22.159Z,67.02
2019-04-27T17:56:52.406Z,66.80
2019-04-27T17:59:22.312Z,67.60
2019-04-27T18:01:54.065Z,65.77
2019-04-27T18:04:23.299Z,66.04
2019-04-27T18:06:55.664Z,66.38
2019-04-27T18:09:24.306Z,67.22
2019-04-27T18:11:54.485Z,66.91
2019-04-27T18:14:24.410Z,66.99
2019-04-27T18:16:54.101Z,67.37
2019-04-27T18:19:28.286Z,66.77
2019-04-27T18:22:00.945Z,67.52
2019-04-27T18:24:48.253Z,66.94
2019-04-27T18:27:37.808Z,65.87
2019-04-27T18:30:16.831Z,67.45
2019-04-27T18:32:48.933Z,67.70
2019-04-27T18:35:19.990Z,67.51
2019-04-27T18:37:53.513Z,66.38
2019-04-27T18:40:24.209Z,63.76
2019-04-27T18:42:53.195Z,63.84
2019-04-27T18:45:22.980Z,64.53
2019-04-27T18:47:54.270Z,65.76
2019-04-27T18:50:28.225Z,65.56
2019-04-27T18:53:02.631Z,65.58
2019-04-27T18:55:31.522Z,66.47
2019-04-27T18:58:02.121Z,67.18
2019-04-27T19:00:32.052Z,67.63
2019-04-27T19:03:01.720Z,67.88
2019-04-27T19:05:39.658Z,67.07
2019-04-27T19:08:02.688Z,66.44
2019-04-27T19:10:32.317Z,67.82
2019-04-27T19:13:02.303Z,68.78
2019-04-27T19:15:31.977Z,68.23
2019-04-27T19:18:01.606Z,68.45
2019-04-27T19:20:31.312Z,68.68
2019-04-27T19:23:00.994Z,68.03
2019-04-27T19:25:32.305Z,68.55
2019-04-27T19:28:15.375Z,66.87
2019-04-27T19:30:44.852Z,67.37
2019-04-27T19:33:14.493Z,68.36
2019-04-27T19:35:44.116Z,67.73
2019-04-27T19:38:13.739Z,67.14
2019-04-27T19:40:43.392Z,68.31
2019-04-27T19:43:13.009Z,68.39
2019-04-27T19:45:42.685Z,68.48
2019-04-27T19:48:12.295Z,68.19
2019-04-27T19:50:41.920Z,67.66
2019-04-27T19:53:11.574Z,67.29
2019-04-27T19:55:42.838Z,67.74
2019-04-27T19:58:13.964Z,68.03
2019-04-27T20:00:48.427Z,65.01
2019-04-27T20:03:22.718Z,67.00
2019-04-27T20:05:52.336Z,66.57
2019-04-27T20:08:27.893Z,68.57
2019-04-27T20:10:57.802Z,67.22
2019-04-27T20:13:27.511Z,68.22
2019-04-27T20:15:57.572Z,68.07
2019-04-27T20:18:27.344Z,67.32
2019-04-27T20:20:56.963Z,67.68
2019-04-27T20:23:26.624Z,67.53
2019-04-27T20:25:56.243Z,68.15
2019-04-27T20:28:25.945Z,67.54
2019-04-27T20:30:55.631Z,67.79
2019-04-27T20:33:25.247Z,68.86
2019-04-27T20:35:54.891Z,68.82
2019-04-27T20:38:24.522Z,69.78
2019-04-27T20:40:54.164Z,70.13
2019-04-27T20:43:24.800Z,70.33
2019-04-27T20:45:54.569Z,71.06
2019-04-27T20:48:24.195Z,70.31
2019-04-27T20:50:53.853Z,68.66
2019-04-27T20:53:25.113Z,68.50
2019-04-27T20:55:54.784Z,67.26
2019-04-27T20:58:24.470Z,67.75
2019-04-27T21:00:54.072Z,67.69
2019-04-27T21:03:25.354Z,67.56
2019-04-27T21:06:05.596Z,68.12
2019-04-27T21:08:36.884Z,67.99
2019-04-27T21:11:06.501Z,68.08
2019-04-27T21:13:36.164Z,66.74
2019-04-27T21:16:06.051Z,67.61
2019-04-27T21:18:35.710Z,68.26
2019-04-27T21:21:05.330Z,67.88
2019-04-27T21:23:34.976Z,67.84
2019-04-27T21:26:04.747Z,68.61
2019-04-27T21:28:34.590Z,68.89
2019-04-27T21:31:04.228Z,69.01
2019-04-27T21:33:33.851Z,68.62
2019-04-27T21:36:03.485Z,67.99
2019-04-27T21:38:33.141Z,69.04
2019-04-27T21:41:02.779Z,69.87
2019-04-27T21:43:32.803Z,69.41
2019-04-27T21:46:02.521Z,68.96
2019-04-27T21:48:32.132Z,69.89
2019-04-27T21:51:01.773Z,70.55
2019-04-27T21:53:33.036Z,70.84
2019-04-27T21:56:04.324Z,71.42
2019-04-27T21:58:34.007Z,71.29
2019-04-27T22:01:13.203Z,71.14
2019-04-27T22:03:43.031Z,70.77
2019-04-27T22:06:12.866Z,70.11
2019-04-27T22:08:42.611Z,70.63
2019-04-27T22:11:12.366Z,70.90
2019-04-27T22:13:42.005Z,70.71
2019-04-27T22:16:13.123Z,70.74
2019-04-27T22:18:42.914Z,69.98
2019-04-27T22:21:12.664Z,70.27
2019-04-27T22:23:46.469Z,71.50
2019-04-27T22:26:16.080Z,70.47
2019-04-27T22:28:49.328Z,70.59
2019-04-27T22:31:17.059Z,70.84
2019-04-27T22:33:46.696Z,70.61
2019-04-27T22:36:16.310Z,71.11
2019-04-27T22:38:46.042Z,70.94
2019-04-27T22:41:23.153Z,70.18
2019-04-27T22:43:52.585Z,69.50
2019-04-27T22:46:32.853Z,69.06
2019-04-27T22:49:03.053Z,69.30
2019-04-27T22:51:32.667Z,69.26
2019-04-27T22:54:02.287Z,70.50
2019-04-27T22:56:32.257Z,68.98
2019-04-27T22:59:04.108Z,68.70
2019-04-27T23:01:40.699Z,69.77
2019-04-27T23:04:19.650Z,69.62
2019-04-27T23:06:49.433Z,69.19
2019-04-27T23:09:19.185Z,70.85
2019-04-27T23:11:48.823Z,70.38
2019-04-27T23:14:18.436Z,70.71
2019-04-27T23:16:52.213Z,69.82
2019-04-27T23:19:21.898Z,69.94
2019-04-27T23:21:53.176Z,69.52
2019-04-27T23:24:22.964Z,69.77
2019-04-27T23:26:52.582Z,70.85
2019-04-27T23:29:22.223Z,70.02
2019-04-27T23:31:53.507Z,70.71
2019-04-27T23:34:23.148Z,71.36
2019-04-27T23:36:52.834Z,73.10
2019-04-27T23:39:22.474Z,72.20
2019-04-27T23:41:52.111Z,71.17
2019-04-27T23:44:21.743Z,71.85
2019-04-27T23:46:51.360Z,72.59
2019-04-27T23:49:21.000Z,72.58
2019-04-27T23:51:52.259Z,70.73
2019-04-27T23:54:21.914Z,70.68
2019-04-27T23:56:51.908Z,70.72
2019-04-27T23:59:25.174Z,70.93
